Terminal Aerodrome Forecast
Issued by NWS Tulsa, OK

Home | Current Version | Previous Version | Text Only | Print | Product List | Glossary On
Versions: 1 2 3 4 5 6 7 8 9 10 11 12 13 14
000
FTUS44 KTSA 101500 AAB
TAFTUL
TAF AMD
KTUL 101512Z 1015/1112 07012KT 5SM -RA BR SCT030 OVC100
      TEMPO 1015/1017 2SM TSRA SCT006 OVC030CB
     FM101700 14009KT P6SM SCT040 BKN120
     FM110100 16008KT P6SM SKC=

USA.gov is the U.S. government's official web portal to all federal, state and local government web resources and services.